createdAt,value
2022-10-23T00:00:20.990Z,27.77
2022-10-23T00:03:23.279Z,26.77
2022-10-23T00:06:26.499Z,26.63
2022-10-23T00:09:29.369Z,29.00
2022-10-23T00:12:32.390Z,28.43
2022-10-23T00:15:35.906Z,29.75
2022-10-23T00:18:39.129Z,30.25
2022-10-23T00:21:41.560Z,28.67
2022-10-23T00:24:43.708Z,27.13
2022-10-23T00:27:45.943Z,30.93
2022-10-23T00:30:48.343Z,30.45
2022-10-23T00:33:52.205Z,31.10
2022-10-23T00:36:54.331Z,29.15
2022-10-23T00:39:56.593Z,30.20
2022-10-23T00:42:58.755Z,28.40
2022-10-23T00:46:01.121Z,25.63
2022-10-23T00:49:04.170Z,25.83
2022-10-23T00:52:08.509Z,27.00
2022-10-23T00:55:11.100Z,25.90
2022-10-23T00:58:15.035Z,26.83
2022-10-23T01:01:20.341Z,35.45
2022-10-23T01:04:23.099Z,31.48
2022-10-23T01:07:43.784Z,31.35
2022-10-23T01:11:25.836Z,30.83
2022-10-23T01:14:43.885Z,29.83
2022-10-23T01:18:00.031Z,28.95
2022-10-23T01:21:38.367Z,28.33
2022-10-23T01:24:40.459Z,27.65
2022-10-23T01:27:47.112Z,26.03
2022-10-23T01:30:49.853Z,26.17
2022-10-23T01:33:57.899Z,27.10
2022-10-23T01:37:04.203Z,25.25
2022-10-23T01:40:09.979Z,26.17
2022-10-23T01:43:25.686Z,22.93
2022-10-23T01:46:28.479Z,22.50
2022-10-23T01:49:31.616Z,22.70
2022-10-23T01:52:34.069Z,23.77
2022-10-23T01:58:55.267Z,25.47
2022-10-23T02:01:59.888Z,22.97
2022-10-23T02:05:26.752Z,22.10
2022-10-23T02:08:31.032Z,21.15
2022-10-23T02:11:39.489Z,22.02
2022-10-23T02:15:04.082Z,21.03
2022-10-23T02:18:07.944Z,21.40
2022-10-23T02:21:13.732Z,21.63
2022-10-23T02:24:19.928Z,21.63
2022-10-23T02:27:27.182Z,21.13
2022-10-23T02:30:33.074Z,21.20
2022-10-23T02:33:45.696Z,20.40
2022-10-23T02:36:48.048Z,21.17
2022-10-23T02:39:50.337Z,20.50
2022-10-23T02:42:58.487Z,20.83
2022-10-23T02:46:15.037Z,24.50
2022-10-23T02:50:06.827Z,23.60
2022-10-23T02:53:20.092Z,22.60
2022-10-23T02:56:37.971Z,23.08
2022-10-23T03:00:14.682Z,21.75
2022-10-23T03:03:24.856Z,19.97
2022-10-23T03:06:27.054Z,19.20
2022-10-23T03:09:29.777Z,20.50
2022-10-23T03:12:32.167Z,21.08
2022-10-23T03:15:34.659Z,20.48
2022-10-23T03:18:36.836Z,20.00
2022-10-23T03:21:39.031Z,22.03
2022-10-23T03:24:43.458Z,22.58
2022-10-23T03:27:45.590Z,21.77
2022-10-23T03:30:50.886Z,21.75
2022-10-23T03:33:53.284Z,21.53
2022-10-23T03:36:56.696Z,21.90
2022-10-23T03:39:58.873Z,21.15
2022-10-23T03:43:01.070Z,20.77
2022-10-23T03:46:09.272Z,21.30
2022-10-23T03:49:11.491Z,20.97
2022-10-23T03:52:17.914Z,21.37
2022-10-23T03:55:20.110Z,22.17
2022-10-23T03:58:22.276Z,20.92
2022-10-23T04:01:24.634Z,22.40
2022-10-23T04:04:26.908Z,22.33
2022-10-23T04:07:32.049Z,23.43
2022-10-23T04:10:36.826Z,24.52
2022-10-23T04:13:38.944Z,23.98
2022-10-23T04:16:41.371Z,23.77
2022-10-23T04:19:44.095Z,23.60
2022-10-23T04:22:46.751Z,21.80
2022-10-23T04:25:49.046Z,24.02
2022-10-23T04:28:51.320Z,23.17
2022-10-23T04:31:53.437Z,21.83
2022-10-23T04:34:55.642Z,25.20
2022-10-23T04:37:58.690Z,23.17
2022-10-23T04:41:00.920Z,24.05
2022-10-23T04:44:04.016Z,24.70
2022-10-23T04:47:08.731Z,23.83
2022-10-23T04:50:20.934Z,22.00
2022-10-23T04:53:47.060Z,19.77
2022-10-23T04:57:00.895Z,21.00
2022-10-23T05:00:12.243Z,20.75
2022-10-23T05:03:29.141Z,20.35
2022-10-23T05:06:31.336Z,22.17
2022-10-23T05:10:06.442Z,20.47
2022-10-23T05:13:23.901Z,19.45
2022-10-23T05:16:50.846Z,19.75
2022-10-23T05:19:56.572Z,19.00
2022-10-23T05:23:00.403Z,20.10
2022-10-23T05:26:04.460Z,19.13
2022-10-23T05:29:07.507Z,21.35
2022-10-23T05:32:10.910Z,22.38
2022-10-23T05:35:16.729Z,20.65
2022-10-23T05:38:22.817Z,20.77
2022-10-23T05:41:25.141Z,19.70
2022-10-23T05:44:32.025Z,19.42
2022-10-23T05:47:49.123Z,22.23
2022-10-23T05:51:07.824Z,26.00
2022-10-23T05:54:37.032Z,27.47
2022-10-23T05:58:03.569Z,33.70
2022-10-23T06:01:26.851Z,34.63
2022-10-23T06:04:40.792Z,33.65
2022-10-23T06:07:46.663Z,33.28
2022-10-23T06:10:49.841Z,31.07
2022-10-23T06:13:52.999Z,30.53
2022-10-23T06:16:57.252Z,28.27
2022-10-23T06:20:02.597Z,29.38
2022-10-23T06:23:10.105Z,32.13
2022-10-23T06:26:33.162Z,26.97
2022-10-23T06:29:43.870Z,30.23
2022-10-23T06:32:49.860Z,26.25
2022-10-23T06:35:52.168Z,23.65
2022-10-23T06:38:56.432Z,31.20
2022-10-23T06:42:05.563Z,23.07
2022-10-23T06:45:34.316Z,23.30
2022-10-23T06:48:48.496Z,24.25
2022-10-23T06:51:57.311Z,24.67
2022-10-23T06:54:59.738Z,23.13
2022-10-23T06:58:10.747Z,27.87
2022-10-23T07:01:24.209Z,28.47
2022-10-23T07:04:26.743Z,28.70
2022-10-23T07:07:30.589Z,29.85
2022-10-23T07:10:33.222Z,38.03
2022-10-23T07:13:39.939Z,31.53
2022-10-23T07:16:49.806Z,29.03
2022-10-23T07:19:52.321Z,27.63
2022-10-23T07:22:56.487Z,23.83
2022-10-23T07:26:10.385Z,30.98
2022-10-23T07:29:13.203Z,27.23
2022-10-23T07:32:15.465Z,26.47
2022-10-23T07:35:38.576Z,36.10
2022-10-23T07:38:45.788Z,28.38
2022-10-23T07:41:48.500Z,35.53
2022-10-23T07:44:50.730Z,30.07
2022-10-23T07:47:53.188Z,25.33
2022-10-23T07:51:01.540Z,28.77
2022-10-23T07:54:04.397Z,25.50
2022-10-23T07:57:26.832Z,30.55
2022-10-23T08:00:42.682Z,24.63
2022-10-23T08:03:59.839Z,27.03
2022-10-23T08:07:02.645Z,31.83
2022-10-23T08:10:11.469Z,25.67
2022-10-23T08:13:17.335Z,26.30
2022-10-23T08:16:32.575Z,24.07
2022-10-23T08:20:03.961Z,23.73
2022-10-23T08:23:17.042Z,24.90
2022-10-23T08:26:19.580Z,32.00
2022-10-23T08:29:22.106Z,24.58
2022-10-23T08:32:24.830Z,24.23
2022-10-23T08:35:30.684Z,23.37
2022-10-23T08:38:33.910Z,24.42
2022-10-23T08:41:38.958Z,25.85
2022-10-23T08:44:56.234Z,24.30
2022-10-23T08:48:04.654Z,23.80
2022-10-23T08:51:40.364Z,23.27
2022-10-23T08:55:12.252Z,23.52
2022-10-23T08:58:23.653Z,23.23
2022-10-23T09:01:33.374Z,23.50
2022-10-23T09:04:35.580Z,23.37
2022-10-23T09:07:49.025Z,22.37
2022-10-23T09:11:12.835Z,23.70
2022-10-23T09:14:52.746Z,23.73
2022-10-23T09:18:01.281Z,23.77
2022-10-23T09:21:11.068Z,23.97
2022-10-23T09:24:17.923Z,23.97
2022-10-23T09:27:20.277Z,24.50
2022-10-23T09:30:42.651Z,25.40
2022-10-23T09:34:00.949Z,25.88
2022-10-23T09:37:27.391Z,26.73
2022-10-23T09:40:30.012Z,26.00
2022-10-23T09:43:32.367Z,26.60
2022-10-23T09:46:47.263Z,27.20
2022-10-23T09:49:52.376Z,25.83
2022-10-23T09:52:55.430Z,29.17
2022-10-23T09:56:01.083Z,29.00
2022-10-23T09:59:12.293Z,29.65
2022-10-23T10:02:28.819Z,30.15
2022-10-23T10:06:03.565Z,30.10
2022-10-23T10:09:10.786Z,29.30
2022-10-23T10:12:23.057Z,28.63
2022-10-23T10:15:43.419Z,31.15
2022-10-23T10:19:20.272Z,30.08
2022-10-23T10:22:49.243Z,29.70
2022-10-23T10:26:03.500Z,29.80
2022-10-23T10:29:24.074Z,29.53
2022-10-23T10:32:48.050Z,29.30
2022-10-23T10:36:09.600Z,28.80
2022-10-23T10:39:35.486Z,25.35
2022-10-23T10:42:44.050Z,19.53
2022-10-23T10:45:49.512Z,21.40
2022-10-23T10:49:14.175Z,18.40
2022-10-23T10:52:50.929Z,19.25
2022-10-23T10:55:55.680Z,21.63
2022-10-23T10:59:05.224Z,19.53
2022-10-23T11:02:29.738Z,18.80
2022-10-23T11:05:35.174Z,17.17
2022-10-23T11:08:56.387Z,15.70
2022-10-23T11:12:00.560Z,14.52
2022-10-23T11:15:03.546Z,13.40
2022-10-23T11:18:13.139Z,12.90
2022-10-23T11:21:36.966Z,25.50
2022-10-23T11:25:12.602Z,12.90
2022-10-23T11:28:14.745Z,24.77
2022-10-23T11:31:36.954Z,14.80
2022-10-23T11:35:04.181Z,11.27
2022-10-23T11:38:12.627Z,12.07
2022-10-23T11:41:27.234Z,10.20
2022-10-23T11:44:36.973Z,10.50
2022-10-23T11:47:40.807Z,9.77
2022-10-23T11:50:46.184Z,10.30
2022-10-23T11:53:48.521Z,9.60
2022-10-23T11:56:53.572Z,9.40
2022-10-23T11:59:56.555Z,10.40
2022-10-23T12:02:59.435Z,9.83
2022-10-23T12:06:04.574Z,10.63
2022-10-23T12:09:43.105Z,9.00
2022-10-23T12:12:56.669Z,8.80
2022-10-23T12:16:00.890Z,8.63
2022-10-23T12:19:19.068Z,9.30
2022-10-23T12:22:25.952Z,10.93
2022-10-23T12:25:44.138Z,8.82
2022-10-23T12:28:49.500Z,10.13
2022-10-23T12:32:04.576Z,10.02
2022-10-23T12:35:20.909Z,7.13
2022-10-23T12:38:25.700Z,7.70
2022-10-23T12:41:29.202Z,8.45
2022-10-23T12:44:31.896Z,9.52
2022-10-23T12:47:34.437Z,9.50
2022-10-23T12:50:37.488Z,8.73
2022-10-23T12:53:39.745Z,9.40
2022-10-23T12:56:42.432Z,11.38
2022-10-23T12:59:45.957Z,7.82
2022-10-23T13:03:01.539Z,6.25
2022-10-23T13:06:04.155Z,7.17
2022-10-23T13:09:10.875Z,15.10
2022-10-23T13:12:25.757Z,7.80
2022-10-23T13:15:40.856Z,6.90
2022-10-23T13:18:43.993Z,7.18
2022-10-23T13:21:47.239Z,8.47
2022-10-23T13:24:50.026Z,7.77
2022-10-23T13:28:07.777Z,7.15
2022-10-23T13:31:10.464Z,7.00
2022-10-23T13:34:19.244Z,12.13
2022-10-23T13:37:31.160Z,9.93
2022-10-23T13:40:33.445Z,12.30
2022-10-23T13:43:36.030Z,9.75
2022-10-23T13:46:38.413Z,10.73
2022-10-23T13:49:40.855Z,11.80
2022-10-23T13:52:43.512Z,10.80
2022-10-23T13:55:48.364Z,10.73
2022-10-23T13:58:50.982Z,9.98
2022-10-23T14:01:54.699Z,8.60
2022-10-23T14:04:56.944Z,11.43
2022-10-23T14:07:59.114Z,9.00
2022-10-23T14:11:01.527Z,8.40
2022-10-23T14:14:04.608Z,7.72
2022-10-23T14:17:07.495Z,9.98
2022-10-23T14:20:10.705Z,18.02
2022-10-23T14:23:13.789Z,18.40
2022-10-23T14:26:20.195Z,10.63
2022-10-23T14:29:24.290Z,9.80
2022-10-23T14:32:27.156Z,13.20
2022-10-23T14:35:29.416Z,10.13
2022-10-23T14:38:31.933Z,12.63
2022-10-23T14:41:34.191Z,11.47
2022-10-23T14:44:36.401Z,10.07
2022-10-23T14:47:39.133Z,8.90
2022-10-23T14:50:49.333Z,9.52
2022-10-23T14:53:58.862Z,14.37
2022-10-23T14:57:01.331Z,11.90
2022-10-23T15:00:05.568Z,10.23
2022-10-23T15:03:07.890Z,9.35
2022-10-23T15:06:11.811Z,9.00
2022-10-23T15:09:16.313Z,9.17
2022-10-23T15:12:19.046Z,9.30
2022-10-23T15:15:22.760Z,9.18
2022-10-23T15:18:27.707Z,8.52
2022-10-23T15:21:30.506Z,8.90
2022-10-23T15:24:32.720Z,11.33
2022-10-23T15:27:35.064Z,10.13
2022-10-23T15:30:44.187Z,10.65
2022-10-23T15:33:46.886Z,13.50
2022-10-23T15:36:50.362Z,12.93
2022-10-23T15:39:56.161Z,10.50
2022-10-23T15:43:00.667Z,9.60
2022-10-23T15:46:02.849Z,9.82
2022-10-23T15:49:05.298Z,10.18
2022-10-23T15:55:12.623Z,9.63
2022-10-23T15:58:15.079Z,10.40
2022-10-23T16:01:17.509Z,9.93
2022-10-23T16:04:20.481Z,9.77
2022-10-23T16:07:23.055Z,10.20
2022-10-23T16:10:25.340Z,9.73
2022-10-23T16:13:28.418Z,10.23
2022-10-23T16:16:32.424Z,9.90
2022-10-23T16:19:35.484Z,12.13
2022-10-23T16:22:41.342Z,12.77
2022-10-23T16:25:46.877Z,14.57
2022-10-23T16:28:57.202Z,13.53
2022-10-23T16:32:00.015Z,12.65
2022-10-23T16:35:02.693Z,14.15
2022-10-23T16:38:16.019Z,13.77
2022-10-23T16:41:18.949Z,15.10
2022-10-23T16:44:33.818Z,12.67
2022-10-23T16:47:39.456Z,13.65
2022-10-23T16:50:42.484Z,13.30
2022-10-23T16:53:45.333Z,13.75
2022-10-23T16:56:48.666Z,13.57
2022-10-23T16:59:51.266Z,13.07
2022-10-23T17:02:54.461Z,14.60
2022-10-23T17:06:06.164Z,13.52
2022-10-23T17:09:12.468Z,13.02
2022-10-23T17:12:16.813Z,14.97
2022-10-23T17:15:21.632Z,13.90
2022-10-23T17:18:24.834Z,15.48
2022-10-23T17:21:34.682Z,16.88
2022-10-23T17:24:39.826Z,16.35
2022-10-23T17:27:43.352Z,16.80
2022-10-23T17:30:46.831Z,14.33
2022-10-23T17:33:52.895Z,13.43
2022-10-23T17:36:57.129Z,21.45
2022-10-23T17:40:03.195Z,14.23
2022-10-23T17:43:06.884Z,14.87
2022-10-23T17:46:12.124Z,16.10
2022-10-23T17:49:18.498Z,17.05
2022-10-23T17:52:21.895Z,22.02
2022-10-23T17:55:28.676Z,17.55
2022-10-23T17:58:36.278Z,16.73
2022-10-23T18:01:40.179Z,15.83
2022-10-23T18:04:43.422Z,14.70
2022-10-23T18:07:46.329Z,11.85
2022-10-23T18:10:49.989Z,14.95
2022-10-23T18:13:53.055Z,10.10
2022-10-23T18:16:55.720Z,11.00
2022-10-23T18:20:02.829Z,9.00
2022-10-23T18:23:05.287Z,10.30
2022-10-23T18:26:21.063Z,15.98
2022-10-23T18:29:23.794Z,9.67
2022-10-23T18:32:26.781Z,9.83
2022-10-23T18:35:29.479Z,8.88
2022-10-23T18:38:32.349Z,9.15
2022-10-23T18:41:39.098Z,25.20
2022-10-23T18:44:47.713Z,15.97
2022-10-23T18:47:51.416Z,6.30
2022-10-23T18:50:55.026Z,4.63
2022-10-23T18:54:00.063Z,5.00
2022-10-23T18:57:03.159Z,5.93
2022-10-23T19:00:09.422Z,5.30
2022-10-23T19:03:16.203Z,5.30
2022-10-23T19:06:20.471Z,6.00
2022-10-23T19:09:23.259Z,6.32
2022-10-23T19:12:25.907Z,7.70
2022-10-23T19:15:28.856Z,6.30
2022-10-23T19:18:33.147Z,5.80
2022-10-23T19:21:37.587Z,5.50
2022-10-23T19:24:42.897Z,5.20
2022-10-23T19:27:46.397Z,5.15
2022-10-23T19:30:49.331Z,4.80
2022-10-23T19:33:51.966Z,4.70
2022-10-23T19:36:55.720Z,7.30
2022-10-23T19:39:58.625Z,6.43
2022-10-23T19:43:01.953Z,5.32
2022-10-23T19:46:09.498Z,5.13
2022-10-23T19:49:15.723Z,4.80
2022-10-23T19:52:18.832Z,5.22
2022-10-23T19:55:21.446Z,5.38
2022-10-23T19:58:24.070Z,5.80
2022-10-23T20:01:27.326Z,6.13
2022-10-23T20:04:30.211Z,5.27
2022-10-23T20:07:33.498Z,5.45
2022-10-23T20:10:42.104Z,12.10
2022-10-23T20:13:44.843Z,8.20
2022-10-23T20:16:50.116Z,6.40
2022-10-23T20:19:56.978Z,6.00
2022-10-23T20:22:59.724Z,5.90
2022-10-23T20:26:10.066Z,7.40
2022-10-23T20:29:13.027Z,8.40
2022-10-23T20:32:16.055Z,8.37
2022-10-23T20:35:18.720Z,6.97
2022-10-23T20:38:23.128Z,7.25
2022-10-23T20:41:27.158Z,6.82
2022-10-23T20:44:30.220Z,6.75
2022-10-23T20:47:33.282Z,7.30
2022-10-23T20:50:36.492Z,7.43
2022-10-23T20:53:39.917Z,8.15
2022-10-23T20:56:42.565Z,8.07
2022-10-23T20:59:45.077Z,8.43
2022-10-23T21:02:49.900Z,9.10
2022-10-23T21:05:54.261Z,8.07
2022-10-23T21:09:01.591Z,9.10
2022-10-23T21:12:04.164Z,9.18
2022-10-23T21:15:07.206Z,9.93
2022-10-23T21:18:27.475Z,9.97
2022-10-23T21:21:37.232Z,10.30
2022-10-23T21:24:39.925Z,13.43
2022-10-23T21:27:42.361Z,15.73
2022-10-23T21:30:44.793Z,11.32
2022-10-23T21:33:48.655Z,9.70
2022-10-23T21:37:11.805Z,10.20
2022-10-23T21:40:14.634Z,9.07
2022-10-23T21:43:17.828Z,9.35
2022-10-23T21:46:20.920Z,8.50
2022-10-23T21:49:23.914Z,9.87
2022-10-23T21:52:29.152Z,8.83
2022-10-23T21:55:32.353Z,9.02
2022-10-23T21:58:34.720Z,29.05
2022-10-23T22:01:36.989Z,14.98
2022-10-23T22:04:41.201Z,10.20
2022-10-23T22:07:47.027Z,8.50
2022-10-23T22:10:49.253Z,8.93
2022-10-23T22:13:51.822Z,8.70
2022-10-23T22:16:54.669Z,8.57
2022-10-23T22:19:57.040Z,8.20
2022-10-23T22:22:59.183Z,8.40
2022-10-23T22:26:18.079Z,8.55
2022-10-23T22:29:27.914Z,8.45
2022-10-23T22:32:30.236Z,9.02
2022-10-23T22:35:35.132Z,9.23
2022-10-23T22:38:37.511Z,8.73
2022-10-23T22:41:39.839Z,10.20
2022-10-23T22:44:42.719Z,10.13
2022-10-23T22:47:45.968Z,9.98
2022-10-23T22:50:49.008Z,9.57
2022-10-23T22:53:52.201Z,9.67
2022-10-23T22:56:55.197Z,9.18
2022-10-23T22:59:58.086Z,9.25
2022-10-23T23:03:01.139Z,9.90
2022-10-23T23:06:06.220Z,9.07
2022-10-23T23:09:09.552Z,9.57
2022-10-23T23:12:14.040Z,9.50
2022-10-23T23:15:16.568Z,9.80
2022-10-23T23:18:19.005Z,10.23
2022-10-23T23:21:22.050Z,10.33
2022-10-23T23:24:25.231Z,9.83
2022-10-23T23:27:27.749Z,11.00
2022-10-23T23:30:29.895Z,11.15
2022-10-23T23:33:32.051Z,10.88
2022-10-23T23:36:34.973Z,10.77
2022-10-23T23:39:37.190Z,10.90
2022-10-23T23:42:39.404Z,10.98
2022-10-23T23:45:41.538Z,9.77
2022-10-23T23:48:47.894Z,10.02
2022-10-23T23:51:50.095Z,10.57
2022-10-23T23:54:52.456Z,11.50
2022-10-23T23:57:54.590Z,11.38
